Time;durP1;ratioP1;P1;durP2;ratioP2;P2;SDS_P1;SDS_P2;PMS_P1;PMS_P2;Temp;Humidity;BMP_temperature;BMP_pressure;BME280_temperature;BME280_humidity;BME280_pressure;Samples;Min_cycle;Max_cycle;Signal;HPM_P1;HPM_P2
2023/04/15 00:00:50;;;;;;;6.10;3.72;;;10.60;92.40;;;;;;5040227;28;20062;-42
2023/04/15 00:03:16;;;;;;;7.25;3.72;;;10.60;92.60;;;;;;5040311;28;20778;-43
2023/04/15 00:05:42;;;;;;;4.88;2.90;;;10.60;92.80;;;;;;5039709;28;20060;-43
2023/04/15 00:08:07;;;;;;;5.35;3.70;;;10.60;92.80;;;;;;5040382;28;20572;-43
2023/04/15 00:10:33;;;;;;;4.90;3.60;;;10.60;92.90;;;;;;5040747;28;20025;-44
2023/04/15 00:12:58;;;;;;;3.97;3.20;;;10.60;92.90;;;;;;5039942;28;20036;-42
2023/04/15 00:15:27;;;;;;;5.50;3.53;;;10.50;93.00;;;;;;5040407;28;20025;-43
2023/04/15 00:17:52;;;;;;;6.50;3.42;;;10.50;93.20;;;;;;5040496;28;20970;-43
2023/04/15 00:20:18;;;;;;;6.95;3.70;;;10.50;93.30;;;;;;5040312;28;20032;-43
2023/04/15 00:22:43;;;;;;;4.80;3.60;;;10.50;93.40;;;;;;5040567;28;20029;-41
2023/04/15 00:25:09;;;;;;;5.25;3.47;;;10.40;93.40;;;;;;5039185;28;20032;-42
2023/04/15 00:27:34;;;;;;;4.63;3.50;;;10.40;93.50;;;;;;5040248;28;20041;-43
2023/04/15 00:30:00;;;;;;;4.47;3.25;;;10.40;93.60;;;;;;5040879;28;20056;-43
2023/04/15 00:32:26;;;;;;;6.00;3.20;;;10.40;93.70;;;;;;5039605;28;20021;-43
2023/04/15 00:34:51;;;;;;;6.45;3.70;;;10.40;93.90;;;;;;5040841;28;20066;-43
2023/04/15 00:37:17;;;;;;;5.15;3.55;;;10.30;93.90;;;;;;5040790;28;20029;-42
2023/04/15 00:39:43;;;;;;;5.68;3.72;;;10.30;94.20;;;;;;5039010;28;20037;-43
2023/04/15 00:42:09;;;;;;;5.72;3.72;;;10.30;94.20;;;;;;5039245;28;20028;-43
2023/04/15 00:44:35;;;;;;;6.00;3.65;;;10.30;94.20;;;;;;5039938;28;20029;-43
2023/04/15 00:47:01;;;;;;;4.90;4.18;;;10.30;94.40;;;;;;5039318;28;20555;-43
2023/04/15 00:49:28;;;;;;;5.63;3.67;;;10.20;94.50;;;;;;5040086;28;20927;-41
2023/04/15 00:51:54;;;;;;;7.22;4.25;;;10.20;94.70;;;;;;5040559;28;20021;-43
2023/04/15 00:54:20;;;;;;;3.72;3.10;;;10.20;94.80;;;;;;5040201;28;20051;-43
2023/04/15 00:56:45;;;;;;;7.25;3.97;;;10.20;94.90;;;;;;5040222;28;20018;-42
2023/04/15 00:59:11;;;;;;;5.57;3.60;;;10.20;95.30;;;;;;5040543;28;20361;-42
2023/04/15 01:01:37;;;;;;;7.22;4.07;;;10.20;95.20;;;;;;5038803;28;20017;-42
2023/04/15 01:04:04;;;;;;;3.90;3.40;;;10.10;95.30;;;;;;5040045;28;20091;-42
2023/04/15 01:06:31;;;;;;;6.53;4.45;;;10.10;95.40;;;;;;5039334;28;20052;-35
2023/04/15 01:08:57;;;;;;;4.60;3.80;;;10.10;95.50;;;;;;5039004;28;20044;-33
2023/04/15 01:11:24;;;;;;;6.38;3.95;;;10.10;95.90;;;;;;5040013;28;20029;-32
2023/04/15 01:13:51;;;;;;;8.23;3.90;;;10.10;95.80;;;;;;5038727;28;20058;-44
2023/04/15 01:16:17;;;;;;;5.07;4.18;;;10.00;96.00;;;;;;5039075;28;20052;-44
2023/04/15 01:18:43;;;;;;;7.22;3.53;;;10.00;96.10;;;;;;5039185;28;20033;-43
2023/04/15 01:21:09;;;;;;;5.85;3.50;;;10.00;96.20;;;;;;5038559;28;20028;-44
2023/04/15 01:23:37;;;;;;;4.57;3.42;;;10.00;96.30;;;;;;5040101;28;20037;-42
2023/04/15 01:26:03;;;;;;;5.03;3.58;;;10.00;96.40;;;;;;5039869;28;20052;-44
2023/04/15 01:28:30;;;;;;;4.57;3.33;;;10.00;96.60;;;;;;5036825;28;20044;-44
2023/04/15 01:31:10;;;;;;;6.93;4.15;;;10.00;96.70;;;;;;5039873;28;20025;-43
2023/04/15 01:33:36;;;;;;;7.40;3.58;;;10.00;96.90;;;;;;5039755;28;20025;-42
2023/04/15 01:36:03;;;;;;;5.45;4.05;;;10.00;96.90;;;;;;5039194;28;20435;-43
2023/04/15 01:38:30;;;;;;;5.05;4.28;;;9.90;97.10;;;;;;5039882;28;20013;-43
2023/04/15 01:40:55;;;;;;;5.05;3.75;;;9.90;97.30;;;;;;5039349;28;20020;-43
2023/04/15 01:43:21;;;;;;;5.85;3.80;;;9.90;97.40;;;;;;5041754;28;20045;-44
2023/04/15 01:45:50;;;;;;;4.35;3.80;;;9.90;97.50;;;;;;5042789;28;20029;-40
2023/04/15 01:48:16;;;;;;;5.75;4.43;;;9.90;97.70;;;;;;5042846;28;20061;-43
2023/04/15 01:50:42;;;;;;;5.70;3.92;;;9.90;97.70;;;;;;5042529;28;20044;-42
2023/04/15 01:53:08;;;;;;;4.95;3.95;;;9.90;97.90;;;;;;5042769;28;20465;-43
2023/04/15 01:55:34;;;;;;;6.38;4.20;;;9.90;98.00;;;;;;5042965;28;20036;-42
2023/04/15 01:58:03;;;;;;;5.57;4.22;;;9.90;98.20;;;;;;5042585;28;20049;-42
2023/04/15 02:00:29;;;;;;;6.40;4.20;;;9.90;98.30;;;;;;5042827;28;20028;-43
2023/04/15 02:02:55;;;;;;;8.05;4.75;;;9.90;98.50;;;;;;5043767;28;20064;-42
2023/04/15 02:05:20;;;;;;;5.95;4.32;;;9.90;98.60;;;;;;5043012;28;20025;-42
2023/04/15 02:07:47;;;;;;;6.22;4.50;;;9.80;98.70;;;;;;5043245;28;20029;-43
2023/04/15 02:10:12;;;;;;;5.07;3.45;;;9.90;98.80;;;;;;5043664;28;20025;-42
2023/04/15 02:12:41;;;;;;;5.93;4.10;;;9.80;99.10;;;;;;5041960;28;20720;-43
2023/04/15 02:15:07;;;;;;;5.60;4.03;;;9.80;99.00;;;;;;5041849;28;20035;-44
2023/04/15 02:17:34;;;;;;;5.13;4.38;;;9.80;99.10;;;;;;5042102;28;20111;-47
2023/04/15 02:20:00;;;;;;;6.57;4.25;;;9.80;99.20;;;;;;5041527;28;20555;-44
2023/04/15 02:22:25;;;;;;;5.05;4.07;;;9.80;99.40;;;;;;5042549;28;20145;-44
2023/04/15 02:24:51;;;;;;;5.05;4.32;;;9.80;99.50;;;;;;5041525;28;20033;-46
2023/04/15 02:27:17;;;;;;;7.32;4.82;;;9.80;99.60;;;;;;5043445;28;20083;-43
2023/04/15 02:29:44;;;;;;;5.15;4.25;;;9.80;99.70;;;;;;5042554;28;20033;-42
2023/04/15 02:32:10;;;;;;;5.22;3.85;;;9.70;99.70;;;;;;5042297;28;20055;-43
2023/04/15 02:34:40;;;;;;;5.97;4.47;;;9.70;99.80;;;;;;5043070;28;20017;-42
2023/04/15 02:37:09;;;;;;;6.25;3.53;;;9.70;99.90;;;;;;5042671;28;20021;-43
2023/04/15 02:39:38;;;;;;;5.95;4.13;;;9.70;99.90;;;;;;5042048;28;20017;-42
2023/04/15 02:42:04;;;;;;;4.43;3.95;;;9.60;99.90;;;;;;5042579;28;20138;-45
2023/04/15 02:44:31;;;;;;;5.53;4.15;;;9.60;99.90;;;;;;5041776;28;20597;-41
2023/04/15 02:46:57;;;;;;;4.70;4.28;;;9.60;99.90;;;;;;5041193;28;20041;-43
2023/04/15 02:49:24;;;;;;;6.32;4.40;;;9.60;99.90;;;;;;5043167;28;20098;-41
2023/04/15 02:51:50;;;;;;;6.07;4.07;;;9.60;99.90;;;;;;5042317;28;20112;-42
2023/04/15 02:54:19;;;;;;;4.97;3.67;;;9.60;99.90;;;;;;5042314;28;20131;-43
2023/04/15 02:56:45;;;;;;;4.78;4.05;;;9.50;99.90;;;;;;5041183;28;20028;-43
2023/04/15 02:59:12;;;;;;;5.97;4.50;;;9.40;99.90;;;;;;5041276;28;20037;-43
2023/04/15 03:01:37;;;;;;;5.57;4.63;;;9.40;99.90;;;;;;5041685;28;20075;-43
2023/04/15 03:04:03;;;;;;;4.47;3.70;;;9.30;99.90;;;;;;5041758;28;20045;-43
2023/04/15 03:06:28;;;;;;;5.70;4.28;;;9.30;99.90;;;;;;5041873;28;20028;-43
2023/04/15 03:08:55;;;;;;;4.93;4.20;;;9.20;99.90;;;;;;5041613;28;20021;-43
2023/04/15 03:11:21;;;;;;;6.07;4.88;;;9.20;99.90;;;;;;5041986;28;20392;-42
2023/04/15 03:13:47;;;;;;;5.10;4.60;;;9.20;99.90;;;;;;5040793;28;20041;-42
2023/04/15 03:16:16;;;;;;;5.78;4.28;;;9.10;99.90;;;;;;5041963;28;20017;-43
2023/04/15 03:18:41;;;;;;;5.10;4.47;;;9.00;99.90;;;;;;5042205;28;20112;-42
2023/04/15 03:21:07;;;;;;;4.40;4.00;;;9.00;99.90;;;;;;5041685;28;20102;-43
2023/04/15 03:23:33;;;;;;;5.57;4.10;;;9.00;99.90;;;;;;5041175;28;20163;-43
2023/04/15 03:26:01;;;;;;;5.72;4.35;;;8.90;99.90;;;;;;5040589;28;20112;-44
2023/04/15 03:28:28;;;;;;;6.03;4.28;;;8.90;99.90;;;;;;5039811;28;20027;-43
2023/04/15 03:30:53;;;;;;;5.60;4.13;;;8.80;99.90;;;;;;5040618;28;20366;-45
2023/04/15 03:33:19;;;;;;;6.55;5.00;;;8.80;99.90;;;;;;5041285;28;20047;-44
2023/04/15 03:35:45;;;;;;;9.50;4.50;;;8.80;99.90;;;;;;5040668;28;20040;-42
2023/04/15 03:38:10;;;;;;;5.28;4.78;;;8.80;99.90;;;;;;5040428;28;20437;-43
2023/04/15 03:40:37;;;;;;;6.50;4.82;;;8.70;99.90;;;;;;5040881;28;20037;-43
2023/04/15 03:43:03;;;;;;;7.03;4.13;;;8.70;99.90;;;;;;5040078;28;20033;-41
2023/04/15 03:45:29;;;;;;;7.95;4.90;;;8.70;99.90;;;;;;5041000;28;20623;-43
2023/04/15 03:47:54;;;;;;;5.20;4.68;;;8.70;99.90;;;;;;5040173;28;20821;-42
2023/04/15 03:50:20;;;;;;;6.15;5.50;;;8.70;99.90;;;;;;5040370;28;20027;-43
2023/04/15 03:52:46;;;;;;;7.20;5.25;;;8.60;99.90;;;;;;5039997;28;20025;-43
2023/04/15 03:55:11;;;;;;;6.85;5.00;;;8.60;99.90;;;;;;5041063;28;20037;-43
2023/04/15 03:57:38;;;;;;;7.82;4.50;;;8.60;99.90;;;;;;5040398;28;20025;-42
2023/04/15 04:00:08;;;;;;;6.22;4.95;;;8.60;99.90;;;;;;5041285;28;20025;-43
2023/04/15 04:02:34;;;;;;;5.00;4.47;;;8.50;99.90;;;;;;5040049;28;20607;-43
2023/04/15 04:05:00;;;;;;;6.82;4.68;;;8.50;99.90;;;;;;5038513;28;20033;-43
2023/04/15 04:07:25;;;;;;;7.13;5.70;;;8.50;99.90;;;;;;5040405;28;20139;-42
2023/04/15 04:09:51;;;;;;;5.80;4.97;;;8.40;99.90;;;;;;5039374;28;20059;-43
2023/04/15 04:12:16;;;;;;;7.75;4.93;;;8.40;99.90;;;;;;5041124;28;20021;-42
2023/04/15 04:14:42;;;;;;;6.55;5.28;;;8.40;99.90;;;;;;5040416;28;20089;-43
2023/04/15 04:17:08;;;;;;;7.88;5.47;;;8.40;99.90;;;;;;5039557;28;20051;-43
2023/04/15 04:19:34;;;;;;;5.88;4.82;;;8.30;99.90;;;;;;5040233;28;20108;-43
2023/04/15 04:22:00;;;;;;;9.05;5.38;;;8.30;99.90;;;;;;5041178;28;20047;-43
2023/04/15 04:24:25;;;;;;;6.20;5.00;;;8.30;99.90;;;;;;5040019;28;20055;-43
2023/04/15 04:26:55;;;;;;;6.00;5.20;;;8.20;99.90;;;;;;5040319;28;20464;-42
2023/04/15 04:29:20;;;;;;;6.15;5.35;;;8.20;99.90;;;;;;5041145;28;20079;-41
2023/04/15 04:31:47;;;;;;;7.97;6.15;;;8.20;99.90;;;;;;5039516;28;20058;-42
2023/04/15 04:34:13;;;;;;;6.60;5.20;;;8.10;99.90;;;;;;5039540;28;20134;-42
2023/04/15 04:36:38;;;;;;;7.75;5.97;;;8.10;99.90;;;;;;5038956;28;20468;-46
2023/04/15 04:39:04;;;;;;;7.82;5.28;;;8.10;99.90;;;;;;5038548;28;20048;-44
2023/04/15 04:41:29;;;;;;;8.65;6.13;;;8.00;99.90;;;;;;5039914;28;20021;-42
2023/04/15 04:43:55;;;;;;;7.13;5.80;;;8.00;99.90;;;;;;5039371;28;20044;-42
2023/04/15 04:46:20;;;;;;;7.47;6.55;;;8.00;99.90;;;;;;5039669;28;20051;-43
2023/04/15 04:48:46;;;;;;;7.72;6.15;;;7.90;99.90;;;;;;5039787;28;20068;-43
2023/04/15 04:51:12;;;;;;;7.68;5.90;;;7.90;99.90;;;;;;5039967;28;20471;-42
2023/04/15 04:53:37;;;;;;;6.97;6.20;;;7.90;99.90;;;;;;5039358;28;20773;-42
2023/04/15 04:56:03;;;;;;;6.75;5.95;;;7.80;99.90;;;;;;5039815;28;20044;-32
2023/04/15 04:58:29;;;;;;;7.07;5.85;;;7.90;99.90;;;;;;5039749;28;20029;-43
2023/04/15 05:00:55;;;;;;;8.77;6.05;;;7.80;99.90;;;;;;5038071;28;20025;-42
2023/04/15 05:03:21;;;;;;;7.53;6.72;;;7.80;99.90;;;;;;5040934;28;20098;-43
2023/04/15 05:05:48;;;;;;;8.73;6.70;;;7.80;99.90;;;;;;5039624;28;20029;-42
2023/04/15 05:08:14;;;;;;;8.35;6.65;;;7.80;99.90;;;;;;5039409;28;20499;-43
2023/04/15 05:10:39;;;;;;;6.18;4.82;;;7.80;99.90;;;;;;5039995;28;20017;-43
2023/04/15 05:13:05;;;;;;;9.90;6.78;;;7.80;99.90;;;;;;5039593;28;20554;-42
2023/04/15 05:15:31;;;;;;;10.52;7.40;;;7.80;99.90;;;;;;5038644;28;20029;-43
2023/04/15 05:17:59;;;;;;;8.93;7.53;;;7.70;99.90;;;;;;5043009;28;20064;-41
2023/04/15 05:20:25;;;;;;;9.05;7.13;;;7.70;99.90;;;;;;5042914;28;20032;-42
2023/04/15 05:22:50;;;;;;;8.75;6.47;;;7.70;99.90;;;;;;5044231;28;20023;-42
2023/04/15 05:25:17;;;;;;;8.15;6.57;;;7.70;99.90;;;;;;5044589;28;20032;-43
2023/04/15 05:27:46;;;;;;;7.28;6.43;;;7.70;99.90;;;;;;5043022;28;20017;-43
2023/04/15 05:30:12;;;;;;;6.97;6.28;;;7.70;99.90;;;;;;5043429;28;20033;-42
2023/04/15 05:32:37;;;;;;;10.45;7.50;;;7.70;99.90;;;;;;5043232;28;20048;-42
2023/04/15 05:35:03;;;;;;;8.02;7.07;;;7.70;99.90;;;;;;5042662;28;20033;-42
2023/04/15 05:37:28;;;;;;;8.85;7.40;;;7.70;99.90;;;;;;5043014;28;20116;-42
2023/04/15 05:39:54;;;;;;;10.48;7.20;;;7.70;99.90;;;;;;5044165;28;20021;-43
2023/04/15 05:42:19;;;;;;;9.57;7.75;;;7.70;99.90;;;;;;5042709;28;20032;-43
2023/04/15 05:44:45;;;;;;;9.82;7.90;;;7.70;99.90;;;;;;5043127;28;20044;-47
2023/04/15 05:47:11;;;;;;;9.80;7.80;;;7.70;99.90;;;;;;5042161;28;20095;-43
2023/04/15 05:49:36;;;;;;;9.95;7.40;;;7.80;99.90;;;;;;5042449;28;20181;-42
2023/04/15 05:52:02;;;;;;;9.10;7.75;;;7.80;99.90;;;;;;5042870;28;20074;-42
2023/04/15 05:54:30;;;;;;;10.73;8.35;;;7.80;99.90;;;;;;5043862;28;20416;-43
2023/04/15 05:56:57;;;;;;;9.02;6.85;;;7.90;99.90;;;;;;5041954;28;20023;-42
2023/04/15 05:59:22;;;;;;;9.73;7.70;;;8.00;99.90;;;;;;5043788;28;20597;-42
2023/04/15 06:01:48;;;;;;;8.63;7.45;;;8.10;99.90;;;;;;5043594;28;20017;-43
2023/04/15 06:04:14;;;;;;;9.13;7.47;;;8.20;99.90;;;;;;5042565;28;20036;-41
2023/04/15 06:06:40;;;;;;;10.20;8.15;;;8.30;99.90;;;;;;5042655;28;20615;-43
2023/04/15 06:09:05;;;;;;;10.93;8.38;;;8.40;99.90;;;;;;5042794;28;20049;-44
2023/04/15 06:11:31;;;;;;;8.10;6.97;;;8.50;99.90;;;;;;5041956;28;20075;-43
2023/04/15 06:13:56;;;;;;;9.43;7.22;;;8.50;99.90;;;;;;5042611;28;20112;-43
2023/04/15 06:16:22;;;;;;;10.73;8.45;;;8.60;99.90;;;;;;5043884;28;20086;-43
2023/04/15 06:18:48;;;;;;;9.10;7.55;;;8.70;99.90;;;;;;5041465;28;20021;-43
2023/04/15 06:21:14;;;;;;;10.60;8.35;;;8.80;99.90;;;;;;5042926;28;20025;-43
2023/04/15 06:23:40;;;;;;;9.80;7.78;;;8.80;99.90;;;;;;5042063;28;20435;-44
2023/04/15 06:26:06;;;;;;;9.38;7.78;;;8.90;99.90;;;;;;5042922;28;20040;-43
2023/04/15 06:28:31;;;;;;;9.43;7.05;;;9.00;99.90;;;;;;5041881;28;20485;-42
2023/04/15 06:30:57;;;;;;;8.45;7.45;;;9.00;99.90;;;;;;5042295;28;20035;-43
2023/04/15 06:33:22;;;;;;;8.38;7.35;;;9.00;99.90;;;;;;5042450;28;20021;-43
2023/04/15 06:35:49;;;;;;;10.43;8.10;;;9.10;99.90;;;;;;5042799;28;20678;-43
2023/04/15 06:38:14;;;;;;;9.73;7.53;;;9.10;99.90;;;;;;5041400;28;20530;-42
2023/04/15 06:40:41;;;;;;;9.30;7.78;;;9.10;99.90;;;;;;5042274;28;20032;-43
2023/04/15 06:43:06;;;;;;;10.40;7.32;;;9.10;99.90;;;;;;5042318;28;20060;-43
2023/04/15 06:45:32;;;;;;;9.82;6.60;;;9.10;99.90;;;;;;5042081;28;20037;-42
2023/04/15 06:47:57;;;;;;;7.68;6.40;;;9.10;99.90;;;;;;5041753;28;20049;-42
2023/04/15 06:50:23;;;;;;;7.95;6.47;;;9.20;99.90;;;;;;5042472;28;20565;-47
2023/04/15 06:52:49;;;;;;;9.35;7.40;;;9.20;99.90;;;;;;5040537;28;20598;-43
2023/04/15 06:55:15;;;;;;;8.00;7.20;;;9.30;99.90;;;;;;5041264;28;20416;-45
2023/04/15 06:57:40;;;;;;;11.27;8.70;;;9.30;99.90;;;;;;5041559;28;20067;-42
2023/04/15 07:00:11;;;;;;;10.25;8.35;;;9.30;99.90;;;;;;5040210;28;20548;-44
2023/04/15 07:02:37;;;;;;;9.60;8.60;;;9.30;99.90;;;;;;5041375;28;20058;-43
2023/04/15 07:05:04;;;;;;;9.70;8.02;;;9.30;99.90;;;;;;5040845;28;20811;-43
2023/04/15 07:07:30;;;;;;;9.18;7.78;;;9.30;99.90;;;;;;5040730;28;20037;-42
2023/04/15 07:09:56;;;;;;;8.48;7.07;;;9.40;99.90;;;;;;5041663;28;20028;-44
2023/04/15 07:12:21;;;;;;;9.15;7.40;;;9.40;99.90;;;;;;5041622;28;20033;-42
2023/04/15 07:14:48;;;;;;;8.18;6.60;;;9.50;99.90;;;;;;5039856;28;20048;-44
2023/04/15 07:17:13;;;;;;;7.75;6.63;;;9.60;99.90;;;;;;5042121;28;20036;-42
2023/04/15 07:19:39;;;;;;;7.28;6.07;;;9.60;99.90;;;;;;5040737;28;20459;-42
2023/04/15 07:22:04;;;;;;;7.53;6.28;;;9.60;99.90;;;;;;5040475;28;20382;-43
2023/04/15 07:24:31;;;;;;;9.82;6.60;;;9.60;99.90;;;;;;5041812;28;20057;-44
2023/04/15 07:26:59;;;;;;;8.40;6.80;;;9.60;99.90;;;;;;5040804;28;20023;-42
2023/04/15 07:29:25;;;;;;;8.88;6.68;;;9.60;99.90;;;;;;5041965;28;20029;-42
2023/04/15 07:31:51;;;;;;;7.45;6.53;;;9.60;99.90;;;;;;5041169;28;20044;-43
2023/04/15 07:34:18;;;;;;;7.82;6.43;;;9.60;99.90;;;;;;5040345;28;20496;-42
2023/04/15 07:36:44;;;;;;;6.82;6.10;;;9.60;99.90;;;;;;5041199;28;20028;-43
2023/04/15 07:39:13;;;;;;;7.45;6.22;;;9.70;99.90;;;;;;5040807;28;20461;-42
2023/04/15 07:41:39;;;;;;;7.82;6.35;;;9.70;99.90;;;;;;5040231;28;20037;-43
2023/04/15 07:44:04;;;;;;;8.25;7.03;;;9.70;99.90;;;;;;5042225;28;20036;-43
2023/04/15 07:46:30;;;;;;;9.02;6.82;;;9.70;99.90;;;;;;5040847;28;20021;-43
2023/04/15 07:48:56;;;;;;;10.10;6.97;;;9.80;99.90;;;;;;5040606;28;20475;-43
2023/04/15 07:51:21;;;;;;;8.77;6.95;;;9.80;99.90;;;;;;5041323;28;20037;-42
2023/04/15 07:53:49;;;;;;;8.48;6.47;;;9.90;99.90;;;;;;5040987;28;20047;-44
2023/04/15 07:56:15;;;;;;;7.47;6.00;;;9.90;99.90;;;;;;5040328;28;20028;-43
2023/04/15 07:58:41;;;;;;;10.27;7.60;;;9.90;99.90;;;;;;5038816;28;20032;-44
2023/04/15 08:01:07;;;;;;;8.82;7.32;;;9.90;99.90;;;;;;5037974;28;20147;-43
2023/04/15 08:03:35;;;;;;;7.95;6.75;;;10.00;99.90;;;;;;5038579;28;20029;-44
2023/04/15 08:06:04;;;;;;;9.02;7.35;;;10.00;99.90;;;;;;5039690;28;20021;-43
2023/04/15 08:08:30;;;;;;;8.40;7.22;;;10.10;99.90;;;;;;5029062;28;20036;-43
2023/04/15 08:10:56;;;;;;;8.07;6.43;;;10.10;99.90;;;;;;5039387;28;20440;-43
2023/04/15 08:13:22;;;;;;;9.38;6.97;;;10.20;99.90;;;;;;5040156;28;20044;-43
2023/04/15 08:16:21;;;;;;;8.57;7.50;;;10.30;99.90;;;;;;5039997;28;20028;-43
2023/04/15 08:18:48;;;;;;;9.93;7.35;;;10.40;99.90;;;;;;5040173;28;20025;-43
2023/04/15 08:21:17;;;;;;;8.48;6.47;;;10.50;99.90;;;;;;5040405;28;20029;-43
2023/04/15 08:23:44;;;;;;;8.27;6.72;;;10.50;99.90;;;;;;5039131;28;20032;-42
2023/04/15 08:26:09;;;;;;;6.97;6.28;;;10.60;99.90;;;;;;5037477;28;20036;-42
2023/04/15 08:28:39;;;;;;;6.93;5.85;;;10.60;99.90;;;;;;5039537;28;20033;-43
2023/04/15 08:31:06;;;;;;;8.32;5.82;;;10.70;99.90;;;;;;5039528;28;20032;-43
2023/04/15 08:33:31;;;;;;;8.30;5.95;;;10.80;99.90;;;;;;5039988;28;20128;-43
2023/04/15 08:35:57;;;;;;;6.43;5.10;;;10.90;99.90;;;;;;5040410;28;20047;-43
2023/04/15 08:38:23;;;;;;;5.13;4.53;;;11.00;99.90;;;;;;5039590;28;20480;-44
2023/04/15 08:40:49;;;;;;;5.43;4.85;;;11.00;99.90;;;;;;5040266;28;20036;-44
2023/04/15 08:43:21;;;;;;;3.72;3.35;;;11.10;99.90;;;;;;5039927;28;20039;-43
2023/04/15 08:45:50;;;;;;;4.25;3.30;;;11.20;99.90;;;;;;5039539;28;20021;-43
2023/04/15 08:48:16;;;;;;;3.70;3.40;;;11.20;99.90;;;;;;5039822;28;20060;-43
2023/04/15 08:50:42;;;;;;;3.88;3.25;;;11.30;99.90;;;;;;5038615;28;20056;-42
2023/04/15 08:53:09;;;;;;;3.95;3.10;;;11.40;99.90;;;;;;5038993;28;20046;-44
2023/04/15 08:55:37;;;;;;;3.83;3.03;;;11.40;99.90;;;;;;5038492;28;20025;-42
2023/04/15 08:58:04;;;;;;;3.88;3.00;;;11.50;99.90;;;;;;5039111;28;20099;-43
2023/04/15 09:00:31;;;;;;;3.10;2.80;;;11.50;99.90;;;;;;5038720;28;20504;-43
2023/04/15 09:02:58;;;;;;;3.20;2.90;;;11.50;99.90;;;;;;5039250;28;20017;-43
2023/04/15 09:05:23;;;;;;;4.85;3.22;;;11.60;99.90;;;;;;5035279;28;20127;-43
2023/04/15 09:07:52;;;;;;;3.45;2.67;;;11.60;99.90;;;;;;5039453;28;20017;-42
2023/04/15 09:10:18;;;;;;;4.20;3.20;;;11.70;99.90;;;;;;5038877;28;20166;-43
2023/04/15 09:12:43;;;;;;;4.18;3.40;;;11.80;99.90;;;;;;5037489;28;20521;-47
2023/04/15 09:15:11;;;;;;;3.95;3.10;;;11.80;99.90;;;;;;5038131;28;20642;-45
2023/04/15 09:17:42;;;;;;;4.15;3.50;;;11.90;99.90;;;;;;5038874;28;20041;-42
2023/04/15 09:20:12;;;;;;;3.75;3.22;;;11.90;99.90;;;;;;5038168;28;20028;-43
2023/04/15 09:22:39;;;;;;;4.75;3.40;;;12.00;99.90;;;;;;5039928;28;20044;-43
2023/04/15 09:25:27;;;;;;;7.18;4.07;;;12.00;99.90;;;;;;5039262;28;20127;-44
2023/04/15 09:27:53;;;;;;;7.22;4.07;;;12.00;99.90;;;;;;5038819;28;20033;-43
2023/04/15 09:30:19;;;;;;;4.60;3.33;;;12.10;99.90;;;;;;5039050;28;20528;-42
2023/04/15 09:32:55;;;;;;;4.10;3.70;;;12.10;99.90;;;;;;5039773;28;20040;-43
2023/04/15 09:35:23;;;;;;;4.85;3.83;;;12.10;99.90;;;;;;5039641;28;20029;-43
2023/04/15 09:37:50;;;;;;;4.13;3.72;;;12.20;99.90;;;;;;5039302;28;20452;-43
2023/04/15 09:40:32;;;;;;;3.92;3.35;;;12.30;99.90;;;;;;5038869;28;20025;-43
2023/04/15 09:42:58;;;;;;;3.88;3.58;;;12.30;99.90;;;;;;5019860;28;20021;-44
2023/04/15 09:45:23;;;;;;;3.38;2.80;;;12.30;99.90;;;;;;5034250;28;20079;-43
2023/04/15 09:47:52;;;;;;;4.78;3.03;;;12.40;99.90;;;;;;5038578;28;20491;-43
2023/04/15 09:50:19;;;;;;;3.55;3.10;;;12.60;99.90;;;;;;5039647;28;20167;-43
2023/04/15 09:52:44;;;;;;;3.75;2.95;;;12.70;99.90;;;;;;5038391;28;20800;-43
2023/04/15 09:55:12;;;;;;;3.38;3.05;;;12.80;99.90;;;;;;5038695;28;20021;-43
2023/04/15 09:57:40;;;;;;;4.60;3.38;;;12.80;99.90;;;;;;5038821;28;20518;-43
2023/04/15 10:00:07;;;;;;;5.85;3.53;;;12.80;99.90;;;;;;5039296;28;20049;-44
2023/04/15 10:02:38;;;;;;;4.13;3.22;;;12.90;99.90;;;;;;5038592;28;20021;-43
2023/04/15 10:05:05;;;;;;;6.95;3.15;;;12.90;99.90;;;;;;5042200;28;20044;-44
2023/04/15 10:07:31;;;;;;;5.45;3.50;;;13.00;99.90;;;;;;5042963;28;20036;-43
2023/04/15 10:10:02;;;;;;;6.85;3.42;;;13.00;99.90;;;;;;5042397;28;20025;-43
2023/04/15 10:12:30;;;;;;;5.55;3.60;;;13.00;99.90;;;;;;5042459;28;20040;-44
2023/04/15 10:15:03;;;;;;;4.35;2.78;;;12.90;99.90;;;;;;5041489;28;20028;-44
2023/04/15 10:17:34;;;;;;;4.30;3.17;;;12.90;99.90;;;;;;5045971;28;20543;-44
2023/04/15 10:20:04;;;;;;;3.63;2.90;;;12.90;99.90;;;;;;5042092;28;20036;-44
2023/04/15 10:22:30;;;;;;;6.47;3.00;;;12.80;99.90;;;;;;5041497;28;20834;-44
2023/04/15 10:24:57;;;;;;;3.58;3.28;;;12.80;99.90;;;;;;5041400;28;20037;-43
2023/04/15 10:27:23;;;;;;;3.67;3.10;;;12.90;99.90;;;;;;5041082;28;20032;-43
2023/04/15 10:29:50;;;;;;;3.65;2.85;;;12.90;99.90;;;;;;5041934;28;20423;-44
2023/04/15 10:32:21;;;;;;;3.72;2.42;;;12.90;99.90;;;;;;5042085;28;20044;-43
2023/04/15 10:34:48;;;;;;;3.10;2.75;;;13.00;99.90;;;;;;5042565;28;20362;-43
2023/04/15 10:37:32;;;;;;;2.78;2.58;;;13.10;99.90;;;;;;5041392;28;20033;-43
2023/04/15 10:39:58;;;;;;;3.10;2.78;;;13.30;99.90;;;;;;5021551;28;20033;-43
2023/04/15 10:42:23;;;;;;;3.53;2.40;;;13.50;99.90;;;;;;5036204;28;20083;-43
2023/04/15 10:44:56;;;;;;;3.05;2.75;;;13.50;99.90;;;;;;5040866;28;20154;-43
2023/04/15 10:47:21;;;;;;;4.53;2.92;;;13.60;99.90;;;;;;5041979;28;20132;-43
2023/04/15 10:49:56;;;;;;;3.88;2.90;;;13.70;99.90;;;;;;5041700;28;20029;-44
2023/04/15 10:52:24;;;;;;;3.65;3.05;;;13.60;99.90;;;;;;5041762;28;20047;-43
2023/04/15 10:55:02;;;;;;;4.30;2.70;;;13.60;99.90;;;;;;5042013;28;20036;-43
2023/04/15 10:57:34;;;;;;;3.70;3.08;;;13.60;99.90;;;;;;5041539;28;20507;-43
2023/04/15 11:00:16;;;;;;;;;;;13.70;99.80;;;;;;5041473;28;20531;-44
2023/04/15 11:03:06;;;;;;;2.72;2.50;;;13.80;99.60;;;;;;5041138;28;20011;-44
2023/04/15 11:05:41;;;;;;;2.38;2.17;;;13.80;99.40;;;;;;5041174;28;20743;-43
2023/04/15 11:08:10;;;;;;;2.40;2.20;;;13.90;99.30;;;;;;5042067;28;20132;-43
2023/04/15 11:10:35;;;;;;;2.50;2.30;;;14.00;99.00;;;;;;5041849;28;20045;-43
2023/04/15 11:13:08;;;;;;;2.60;2.03;;;14.00;99.00;;;;;;5041434;28;20017;-43
2023/04/15 11:15:41;;;;;;;2.83;2.40;;;14.00;98.40;;;;;;5041119;28;20041;-43
2023/04/15 11:18:15;;;;;;;2.20;2.00;;;14.00;98.20;;;;;;5041534;28;20099;-43
2023/04/15 11:20:44;;;;;;;2.47;2.13;;;14.00;98.10;;;;;;5041070;28;20037;-43
2023/04/15 11:23:09;;;;;;;2.45;1.83;;;14.10;98.20;;;;;;5044725;28;20378;-43
2023/04/15 11:25:38;;;;;;;1.80;1.70;;;14.20;98.20;;;;;;5041100;28;20556;-43
2023/04/15 11:28:04;;;;;;;3.05;2.05;;;14.30;98.10;;;;;;5040132;28;20382;-45
2023/04/15 11:30:35;;;;;;;2.30;2.10;;;14.40;97.80;;;;;;5039767;28;20029;-43
2023/04/15 11:33:03;;;;;;;2.75;2.35;;;14.40;97.70;;;;;;5039462;28;20025;-43
2023/04/15 11:35:30;;;;;;;3.35;1.92;;;14.40;97.40;;;;;;5041106;28;20047;-43
2023/04/15 11:37:56;;;;;;;3.17;1.77;;;14.30;97.40;;;;;;5040552;28;20031;-43
2023/04/15 11:40:23;;;;;;;2.40;1.80;;;14.30;97.40;;;;;;5039530;28;20028;-44
2023/04/15 11:43:08;;;;;;;2.00;1.50;;;14.30;97.10;;;;;;5040800;28;20028;-43
2023/04/15 11:45:46;;;;;;;1.77;1.60;;;14.30;97.20;;;;;;5039732;28;20776;-43
2023/04/15 11:48:12;;;;;;;2.85;1.58;;;14.40;96.90;;;;;;5040384;28;20053;-43
2023/04/15 11:50:40;;;;;;;2.58;1.45;;;14.50;96.90;;;;;;5040334;28;20388;-43
2023/04/15 11:53:07;;;;;;;5.13;1.70;;;14.50;96.90;;;;;;5041263;28;20094;-43
2023/04/15 11:55:52;;;;;;;2.10;1.50;;;14.50;96.30;;;;;;5040091;28;20037;-43
2023/04/15 11:58:25;;;;;;;2.80;1.80;;;14.40;95.70;;;;;;5041168;28;20095;-43
2023/04/15 12:00:58;;;;;;;2.78;1.40;;;14.20;95.70;;;;;;5037372;28;20029;-44
2023/04/15 12:03:42;;;;;;;1.42;1.20;;;14.20;95.90;;;;;;5040214;28;20037;-43
2023/04/15 12:06:18;;;;;;;1.75;1.30;;;14.20;96.00;;;;;;5039777;28;20571;-42
2023/04/15 12:09:05;;;;;;;1.70;1.20;;;14.20;95.50;;;;;;5039443;28;20559;-44
2023/04/15 12:11:34;;;;;;;1.95;1.40;;;14.30;95.70;;;;;;5039678;28;20119;-44
2023/04/15 12:14:11;;;;;;;2.13;1.35;;;14.20;95.70;;;;;;5040613;28;20392;-43
2023/04/15 12:16:43;;;;;;;1.30;1.10;;;14.30;95.80;;;;;;5039906;28;20036;-44
2023/04/15 12:19:11;;;;;;;1.50;1.40;;;14.40;95.80;;;;;;5040349;28;20021;-43
2023/04/15 12:21:39;;;;;;;2.47;1.30;;;14.40;95.70;;;;;;5039729;28;20551;-43
2023/04/15 12:24:10;;;;;;;1.85;1.05;;;14.50;95.80;;;;;;5039715;28;20033;-42
2023/04/15 12:26:47;;;;;;;1.55;1.13;;;14.60;95.60;;;;;;5038613;28;20512;-43
2023/04/15 12:29:15;;;;;;;2.08;1.10;;;14.60;95.20;;;;;;5040967;28;20029;-44
2023/04/15 12:31:49;;;;;;;1.77;1.20;;;14.60;95.10;;;;;;5039750;28;20545;-43
2023/04/15 12:34:15;;;;;;;3.17;1.55;;;14.70;95.20;;;;;;5040686;28;20031;-43
2023/04/15 12:36:41;;;;;;;2.08;1.40;;;14.80;95.10;;;;;;5038889;28;20021;-43
2023/04/15 12:39:06;;;;;;;2.17;1.60;;;14.90;95.10;;;;;;5039853;28;20035;-44
2023/04/15 12:41:32;;;;;;;1.83;1.52;;;14.90;94.90;;;;;;5039342;28;20089;-44
2023/04/15 12:43:58;;;;;;;3.92;1.95;;;14.90;94.80;;;;;;5039899;28;20097;-44
2023/04/15 12:46:24;;;;;;;2.03;1.65;;;15.00;95.10;;;;;;5039708;28;20071;-43
2023/04/15 12:48:51;;;;;;;1.92;1.73;;;15.00;95.00;;;;;;5040020;28;20053;-43
2023/04/15 12:51:17;;;;;;;2.58;2.10;;;15.00;95.10;;;;;;5039646;28;20484;-43
2023/04/15 12:53:43;;;;;;;3.55;2.25;;;15.00;95.20;;;;;;5040193;28;20098;-43